Time;durP1;ratioP1;P1;durP2;ratioP2;P2;SDS_P1;SDS_P2;PMS_P1;PMS_P2;Temp;Humidity;BMP_temperature;BMP_pressure;BME280_temperature;BME280_humidity;BME280_pressure;Samples;Min_cycle;Max_cycle;Signal;HPM_P1;HPM_P2
2021/07/28 00:00:12;;;;;;;7.50;4.15;;;;;;;;;;5067076;28;20024;-52
2021/07/28 00:02:42;;;;;;;4.65;3.85;;;;;;;;;;5074959;28;20119;-50
2021/07/28 00:05:08;;;;;;;5.82;4.38;;;;;;;;;;5057999;28;20028;-50
2021/07/28 00:07:34;;;;;;;6.13;4.13;;;;;;;;;;5082236;28;20024;-55
2021/07/28 00:10:00;;;;;;;5.75;4.35;;;;;;;;;;5065409;28;20507;-55
2021/07/28 00:12:27;;;;;;;5.65;4.20;;;;;;;;;;5077316;28;20082;-54
2021/07/28 00:14:53;;;;;;;8.20;4.28;;;;;;;;;;5072100;28;20030;-50
2021/07/28 00:17:19;;;;;;;8.15;4.55;;;;;;;;;;5079659;28;20035;-53
2021/07/28 00:19:53;;;;;;;8.55;4.25;;;;;;;;;;5058875;28;20067;-51
2021/07/28 00:25:05;;;;;;;9.23;4.97;;;;;;;;;;5069277;28;20043;-52
2021/07/28 00:27:31;;;;;;;7.57;4.00;;;;;;;;;;5060633;28;20082;-49
2021/07/28 00:29:57;;;;;;;8.43;4.13;;;;;;;;;;5067973;28;20032;-55
2021/07/28 00:32:23;;;;;;;6.03;4.50;;;;;;;;;;5085444;28;20577;-50
2021/07/28 00:34:49;;;;;;;7.00;4.43;;;;;;;;;;5054211;28;20033;-50
2021/07/28 00:37:15;;;;;;;7.10;4.93;;;;;;;;;;5080816;28;20038;-49
2021/07/28 00:39:41;;;;;;;6.10;4.43;;;;;;;;;;5076010;28;20035;-49
2021/07/28 00:42:07;;;;;;;7.72;5.10;;;;;;;;;;5066029;28;20028;-51
2021/07/28 00:44:33;;;;;;;10.23;4.88;;;;;;;;;;5065305;28;20040;-50
2021/07/28 00:46:59;;;;;;;6.03;4.80;;;;;;;;;;5079621;28;20043;-49
2021/07/28 00:49:25;;;;;;;6.57;4.72;;;;;;;;;;5057316;28;20472;-54
2021/07/28 00:51:51;;;;;;;7.43;4.68;;;;;;;;;;5068874;28;20035;-54
2021/07/28 00:54:17;;;;;;;6.10;4.60;;;;;;;;;;5081821;28;20161;-54
2021/07/28 00:56:44;;;;;;;7.60;4.82;;;;;;;;;;5070995;28;20137;-50
2021/07/28 00:59:10;;;;;;;5.95;4.55;;;;;;;;;;5063460;28;20044;-53
2021/07/28 01:01:39;;;;;;;11.57;5.45;;;;;;;;;;5069842;28;20124;-54
2021/07/28 01:04:05;;;;;;;8.68;5.18;;;;;;;;;;5053987;28;20097;-54
2021/07/28 01:06:31;;;;;;;7.15;5.05;;;;;;;;;;5086381;28;20119;-51
2021/07/28 01:08:57;;;;;;;7.95;4.40;;;;;;;;;;5066066;28;20075;-50
2021/07/28 01:11:27;;;;;;;8.30;5.07;;;;;;;;;;5078414;28;20056;-49
2021/07/28 01:13:55;;;;;;;6.93;4.65;;;;;;;;;;5083819;28;20072;-50
2021/07/28 01:16:23;;;;;;;7.57;4.82;;;;;;;;;;5059951;28;20029;-49
2021/07/28 01:18:49;;;;;;;6.65;4.75;;;;;;;;;;5070927;28;20115;-50
2021/07/28 01:21:16;;;;;;;10.70;4.43;;;;;;;;;;5076566;28;20112;-51
2021/07/28 01:23:42;;;;;;;5.78;4.00;;;;;;;;;;5088097;28;20379;-49
2021/07/28 01:26:08;;;;;;;6.63;4.70;;;;;;;;;;5060561;28;20039;-52
2021/07/28 01:28:36;;;;;;;6.30;4.70;;;;;;;;;;5060659;28;20524;-55
2021/07/28 01:31:02;;;;;;;6.30;4.97;;;;;;;;;;5067389;28;20453;-55
2021/07/28 01:33:32;;;;;;;6.57;4.82;;;;;;;;;;5062008;28;20029;-54
2021/07/28 01:35:59;;;;;;;7.97;5.40;;;;;;;;;;5068679;28;20036;-51
2021/07/28 01:38:25;;;;;;;9.30;6.05;;;;;;;;;;5074405;28;20048;-51
2021/07/28 01:40:58;;;;;;;5.70;4.75;;;;;;;;;;5082231;28;20505;-49
2021/07/28 01:43:26;;;;;;;7.82;4.70;;;;;;;;;;5058606;28;20057;-53
2021/07/28 01:45:52;;;;;;;6.80;5.18;;;;;;;;;;5057975;28;20039;-49
2021/07/28 01:48:18;;;;;;;7.20;4.90;;;;;;;;;;5062724;28;20033;-50
2021/07/28 01:50:45;;;;;;;10.38;5.07;;;;;;;;;;5060059;28;20495;-51
2021/07/28 01:53:11;;;;;;;5.78;4.65;;;;;;;;;;5084936;28;20026;-49
2021/07/28 01:55:37;;;;;;;10.25;5.75;;;;;;;;;;5062267;28;20037;-53
2021/07/28 01:58:03;;;;;;;8.95;5.03;;;;;;;;;;5077377;28;20029;-52
2021/07/28 02:00:29;;;;;;;9.88;5.15;;;;;;;;;;5068374;28;20416;-50
2021/07/28 02:03:02;;;;;;;6.43;4.95;;;;;;;;;;5062368;28;20028;-49
2021/07/28 02:05:28;;;;;;;9.57;5.63;;;;;;;;;;5089611;28;20043;-50
2021/07/28 02:07:54;;;;;;;11.38;4.88;;;;;;;;;;5077253;28;20024;-55
2021/07/28 02:10:20;;;;;;;8.30;5.20;;;;;;;;;;5064109;28;20045;-54
2021/07/28 02:12:46;;;;;;;6.35;4.88;;;;;;;;;;5063417;28;20025;-50
2021/07/28 02:15:12;;;;;;;10.15;4.85;;;;;;;;;;5077626;28;20039;-54
2021/07/28 02:17:38;;;;;;;5.95;4.60;;;;;;;;;;5073530;28;20046;-52
2021/07/28 02:20:04;;;;;;;5.95;4.70;;;;;;;;;;5082121;28;20021;-49
2021/07/28 02:22:30;;;;;;;8.18;4.70;;;;;;;;;;5094040;28;20028;-53
2021/07/28 02:24:56;;;;;;;8.20;5.35;;;;;;;;;;5082121;28;20051;-51
2021/07/28 02:27:22;;;;;;;7.85;5.43;;;;;;;;;;5072098;28;20040;-50
2021/07/28 02:29:49;;;;;;;7.55;5.25;;;;;;;;;;5090884;28;20044;-50
2021/07/28 02:32:15;;;;;;;7.90;4.70;;;;;;;;;;5070492;28;20045;-49
2021/07/28 02:34:41;;;;;;;8.70;5.63;;;;;;;;;;5058905;28;20083;-49
2021/07/28 02:37:07;;;;;;;8.27;4.90;;;;;;;;;;5083026;28;20059;-51
2021/07/28 02:39:33;;;;;;;6.97;5.47;;;;;;;;;;5075074;28;20039;-50
2021/07/28 02:41:59;;;;;;;9.77;5.50;;;;;;;;;;5065895;28;20115;-50
2021/07/28 02:44:26;;;;;;;7.22;5.30;;;;;;;;;;5071330;28;20029;-54
2021/07/28 02:46:51;;;;;;;7.75;4.93;;;;;;;;;;5083565;28;20032;-55
2021/07/28 02:49:17;;;;;;;8.82;5.13;;;;;;;;;;5061491;28;20036;-55
2021/07/28 02:51:43;;;;;;;8.82;5.70;;;;;;;;;;5083763;28;20027;-55
2021/07/28 02:54:11;;;;;;;6.93;5.28;;;;;;;;;;5087603;28;20393;-50
2021/07/28 02:56:37;;;;;;;9.57;4.80;;;;;;;;;;5078796;28;20405;-51
2021/07/28 02:59:03;;;;;;;6.72;5.07;;;;;;;;;;5066763;28;20052;-50
2021/07/28 03:01:29;;;;;;;7.38;4.97;;;;;;;;;;5072371;28;20040;-53
2021/07/28 03:03:55;;;;;;;7.15;5.07;;;;;;;;;;5071202;28;20044;-50
2021/07/28 03:06:21;;;;;;;7.25;5.15;;;;;;;;;;5070650;28;20024;-50
2021/07/28 03:08:47;;;;;;;7.35;5.53;;;;;;;;;;5058844;28;20040;-52
2021/07/28 03:11:13;;;;;;;6.82;5.45;;;;;;;;;;5071803;28;20029;-50
2021/07/28 03:13:39;;;;;;;6.60;5.00;;;;;;;;;;5068405;28;20044;-51
2021/07/28 03:16:08;;;;;;;8.13;5.05;;;;;;;;;;5076177;28;20040;-50
2021/07/28 03:18:34;;;;;;;9.35;5.07;;;;;;;;;;5063604;28;20100;-55
2021/07/28 03:21:01;;;;;;;10.40;5.88;;;;;;;;;;5073285;28;20028;-54
2021/07/28 03:23:27;;;;;;;11.38;5.25;;;;;;;;;;5071954;28;20108;-54
2021/07/28 03:25:53;;;;;;;7.65;5.00;;;;;;;;;;5078539;28;20033;-54
2021/07/28 03:28:18;;;;;;;8.25;4.63;;;;;;;;;;5072582;28;20113;-53
2021/07/28 03:30:44;;;;;;;7.03;4.97;;;;;;;;;;5084679;28;20028;-53
2021/07/28 03:33:10;;;;;;;9.13;5.93;;;;;;;;;;5067303;28;20477;-54
2021/07/28 03:35:36;;;;;;;7.53;5.43;;;;;;;;;;5058944;28;20151;-49
2021/07/28 03:38:02;;;;;;;8.13;5.28;;;;;;;;;;5085016;28;20028;-53
2021/07/28 03:40:29;;;;;;;7.28;4.47;;;;;;;;;;5072632;28;20016;-49
2021/07/28 03:42:55;;;;;;;7.53;4.97;;;;;;;;;;5054962;28;20516;-50
2021/07/28 03:45:21;;;;;;;7.35;5.43;;;;;;;;;;5072396;28;20115;-51
2021/07/28 03:47:47;;;;;;;5.65;4.70;;;;;;;;;;5059526;28;20377;-50
2021/07/28 03:50:13;;;;;;;9.25;5.22;;;;;;;;;;5075265;28;20082;-52
2021/07/28 03:52:39;;;;;;;8.18;5.13;;;;;;;;;;5078909;28;20875;-50
2021/07/28 03:55:05;;;;;;;5.70;4.63;;;;;;;;;;5064842;28;20020;-53
2021/07/28 03:57:31;;;;;;;6.07;4.40;;;;;;;;;;5077708;28;20059;-54
2021/07/28 03:59:57;;;;;;;6.97;5.43;;;;;;;;;;5068339;28;20036;-55
2021/07/28 04:02:23;;;;;;;6.05;4.80;;;;;;;;;;5066358;28;20079;-51
2021/07/28 04:04:49;;;;;;;6.35;5.25;;;;;;;;;;5078449;28;20064;-54
2021/07/28 04:07:15;;;;;;;8.27;5.07;;;;;;;;;;5080175;28;20043;-52
2021/07/28 04:09:40;;;;;;;7.07;4.88;;;;;;;;;;5067506;28;20049;-52
2021/07/28 04:12:07;;;;;;;5.10;4.60;;;;;;;;;;5066327;28;20020;-50
2021/07/28 04:14:33;;;;;;;9.15;4.80;;;;;;;;;;5067502;28;20081;-50
2021/07/28 04:16:59;;;;;;;7.63;5.30;;;;;;;;;;5079996;28;20044;-50
2021/07/28 04:19:25;;;;;;;6.10;5.10;;;;;;;;;;5069222;28;20025;-50
2021/07/28 04:21:51;;;;;;;5.63;4.95;;;;;;;;;;5081130;28;20032;-51
2021/07/28 04:24:16;;;;;;;6.45;5.38;;;;;;;;;;5085299;28;20028;-52
2021/07/28 04:26:42;;;;;;;5.38;4.65;;;;;;;;;;5063673;28;20037;-51
2021/07/28 04:29:08;;;;;;;10.82;4.70;;;;;;;;;;5083330;28;20036;-53
2021/07/28 04:31:34;;;;;;;8.43;5.15;;;;;;;;;;5066134;28;20100;-53
2021/07/28 04:34:00;;;;;;;7.80;5.00;;;;;;;;;;5063034;28;20047;-56
2021/07/28 04:36:26;;;;;;;7.60;4.75;;;;;;;;;;5063447;28;20029;-54
2021/07/28 04:38:52;;;;;;;12.02;5.38;;;;;;;;;;5072799;28;20115;-51
2021/07/28 04:41:18;;;;;;;6.45;4.95;;;;;;;;;;5063060;28;20059;-50
2021/07/28 04:43:44;;;;;;;9.35;4.47;;;;;;;;;;5057067;28;20032;-49
2021/07/28 04:46:10;;;;;;;8.23;4.90;;;;;;;;;;5066813;28;20039;-51
2021/07/28 04:48:36;;;;;;;6.03;4.97;;;;;;;;;;5073430;28;20035;-49
2021/07/28 04:51:02;;;;;;;6.10;4.95;;;;;;;;;;5081596;28;20028;-49
2021/07/28 04:53:28;;;;;;;9.95;4.88;;;;;;;;;;5081539;28;20278;-50
2021/07/28 04:55:58;;;;;;;6.28;4.97;;;;;;;;;;5062461;28;20389;-50
2021/07/28 04:58:25;;;;;;;7.78;4.97;;;;;;;;;;5063895;28;20022;-49
2021/07/28 05:00:51;;;;;;;6.72;4.88;;;;;;;;;;5077944;28;20503;-50
2021/07/28 05:03:17;;;;;;;6.70;4.40;;;;;;;;;;5059004;28;20021;-50
2021/07/28 05:05:43;;;;;;;5.40;4.68;;;;;;;;;;5076405;28;20020;-49
2021/07/28 05:08:09;;;;;;;6.78;4.72;;;;;;;;;;5067445;28;20025;-54
2021/07/28 05:10:36;;;;;;;5.53;4.60;;;;;;;;;;5060807;28;20049;-51
2021/07/28 05:13:02;;;;;;;7.35;5.00;;;;;;;;;;5064203;28;20063;-50
2021/07/28 05:15:28;;;;;;;7.28;4.95;;;;;;;;;;5078605;28;20104;-51
2021/07/28 05:17:54;;;;;;;7.40;4.75;;;;;;;;;;5058093;28;20476;-50
2021/07/28 05:20:20;;;;;;;8.30;5.10;;;;;;;;;;5066384;28;20429;-50
2021/07/28 05:22:47;;;;;;;5.85;4.78;;;;;;;;;;5058810;28;20040;-49
2021/07/28 05:25:14;;;;;;;5.93;4.40;;;;;;;;;;5055796;28;20055;-48
2021/07/28 05:27:40;;;;;;;5.97;4.72;;;;;;;;;;5080129;28;20544;-49
2021/07/28 05:30:06;;;;;;;8.35;4.60;;;;;;;;;;5069168;28;20115;-50
2021/07/28 05:32:33;;;;;;;6.43;4.72;;;;;;;;;;5057007;28;20380;-53
2021/07/28 05:34:59;;;;;;;8.18;5.15;;;;;;;;;;5058139;28;20025;-49
2021/07/28 05:37:25;;;;;;;7.95;5.63;;;;;;;;;;5052208;28;20087;-49
2021/07/28 05:39:52;;;;;;;6.90;4.90;;;;;;;;;;5058061;28;20047;-49
2021/07/28 05:42:18;;;;;;;6.43;4.95;;;;;;;;;;5060310;28;20388;-51
2021/07/28 05:44:44;;;;;;;7.72;4.68;;;;;;;;;;5060280;28;20025;-54
2021/07/28 05:47:10;;;;;;;7.18;5.25;;;;;;;;;;5053398;28;20044;-54
2021/07/28 05:49:36;;;;;;;6.15;5.00;;;;;;;;;;5062527;28;20052;-50
2021/07/28 05:52:02;;;;;;;6.47;5.13;;;;;;;;;;5070820;28;20096;-50
2021/07/28 05:54:28;;;;;;;6.68;5.35;;;;;;;;;;5081234;28;20032;-52
2021/07/28 05:56:54;;;;;;;8.05;5.30;;;;;;;;;;5069922;28;20031;-50
2021/07/28 05:59:21;;;;;;;6.65;5.28;;;;;;;;;;5062188;28;20021;-50
2021/07/28 06:01:47;;;;;;;7.15;5.30;;;;;;;;;;5063613;28;20032;-49
2021/07/28 06:04:13;;;;;;;6.13;4.82;;;;;;;;;;5086544;28;20111;-49
2021/07/28 06:06:39;;;;;;;8.05;4.97;;;;;;;;;;5083436;28;20107;-49
2021/07/28 06:09:06;;;;;;;6.43;5.18;;;;;;;;;;5076140;28;20128;-50
2021/07/28 06:11:31;;;;;;;6.05;4.65;;;;;;;;;;5084123;28;20433;-49
2021/07/28 06:13:58;;;;;;;5.82;4.82;;;;;;;;;;5082899;28;20032;-51
2021/07/28 06:16:25;;;;;;;10.18;5.15;;;;;;;;;;5058270;28;20053;-50
2021/07/28 06:18:51;;;;;;;8.50;4.70;;;;;;;;;;5080724;28;20028;-49
2021/07/28 06:21:17;;;;;;;7.45;5.60;;;;;;;;;;5082973;28;20028;-54
2021/07/28 06:23:43;;;;;;;8.18;4.43;;;;;;;;;;5063509;28;20036;-52
2021/07/28 06:26:09;;;;;;;7.20;5.15;;;;;;;;;;5076315;28;20029;-51
2021/07/28 06:28:35;;;;;;;7.22;5.45;;;;;;;;;;5059136;28;20025;-49
2021/07/28 06:31:03;;;;;;;6.68;5.22;;;;;;;;;;5084722;28;20028;-50
2021/07/28 06:33:29;;;;;;;8.68;4.88;;;;;;;;;;5071464;28;20090;-49
2021/07/28 06:35:55;;;;;;;7.28;4.80;;;;;;;;;;5076739;28;20036;-49
2021/07/28 06:38:21;;;;;;;8.85;5.97;;;;;;;;;;5074780;28;20025;-50
2021/07/28 06:40:47;;;;;;;8.43;5.40;;;;;;;;;;5072559;28;20036;-49
2021/07/28 06:43:14;;;;;;;7.22;4.90;;;;;;;;;;5071977;28;20027;-49
2021/07/28 06:45:40;;;;;;;6.18;5.00;;;;;;;;;;5084438;28;20032;-50
2021/07/28 06:48:07;;;;;;;8.25;4.68;;;;;;;;;;5076907;28;20107;-48
2021/07/28 06:50:33;;;;;;;9.07;5.80;;;;;;;;;;5061048;28;20025;-49
2021/07/28 06:52:58;;;;;;;6.45;5.25;;;;;;;;;;5065294;28;20396;-52
2021/07/28 06:55:24;;;;;;;8.55;5.88;;;;;;;;;;5084134;28;20028;-52
2021/07/28 06:57:50;;;;;;;6.97;5.25;;;;;;;;;;5066006;28;20029;-49
2021/07/28 07:00:17;;;;;;;7.65;5.43;;;;;;;;;;5070710;28;20025;-50
2021/07/28 07:02:43;;;;;;;10.50;5.85;;;;;;;;;;5067822;28;20648;-50
2021/07/28 07:05:10;;;;;;;10.88;5.90;;;;;;;;;;5058531;28;20040;-49
2021/07/28 07:07:36;;;;;;;9.77;5.20;;;;;;;;;;5057529;28;20032;-50
2021/07/28 07:10:08;;;;;;;11.40;5.38;;;;;;;;;;5070937;28;20399;-49
2021/07/28 07:12:34;;;;;;;7.25;5.22;;;;;;;;;;5064889;28;20054;-51
2021/07/28 07:15:00;;;;;;;7.63;5.13;;;;;;;;;;5064868;28;20114;-51
2021/07/28 07:17:26;;;;;;;7.45;4.88;;;;;;;;;;5063715;28;20040;-49
2021/07/28 07:19:52;;;;;;;9.07;4.40;;;;;;;;;;5067164;28;20056;-49
2021/07/28 07:22:18;;;;;;;6.80;4.20;;;;;;;;;;5070007;28;20041;-49
2021/07/28 07:24:44;;;;;;;11.00;4.97;;;;;;;;;;5076670;28;20448;-49
2021/07/28 07:27:10;;;;;;;5.85;4.15;;;;;;;;;;5087281;28;20027;-49
2021/07/28 07:29:36;;;;;;;5.97;3.80;;;;;;;;;;5082786;28;20047;-51
2021/07/28 07:32:02;;;;;;;5.93;3.97;;;;;;;;;;5056661;28;20029;-50
2021/07/28 07:34:29;;;;;;;6.88;4.32;;;;;;;;;;5058673;28;20027;-51
2021/07/28 07:36:55;;;;;;;5.57;4.47;;;;;;;;;;5064686;28;20041;-50
2021/07/28 07:39:20;;;;;;;8.02;4.25;;;;;;;;;;5073055;28;20048;-52
2021/07/28 07:41:46;;;;;;;6.63;3.78;;;;;;;;;;5073101;28;20016;-51
2021/07/28 07:44:12;;;;;;;5.45;4.07;;;;;;;;;;5072070;28;20119;-51
2021/07/28 07:46:38;;;;;;;4.97;3.80;;;;;;;;;;5070368;28;20445;-49
2021/07/28 07:49:04;;;;;;;6.82;4.40;;;;;;;;;;5069821;28;20535;-49
2021/07/28 07:51:31;;;;;;;6.28;4.28;;;;;;;;;;5068907;28;20031;-49
2021/07/28 07:53:57;;;;;;;6.82;4.00;;;;;;;;;;5086855;28;20151;-51
2021/07/28 07:56:23;;;;;;;5.40;3.95;;;;;;;;;;5056469;28;20037;-49
2021/07/28 07:58:49;;;;;;;6.00;3.97;;;;;;;;;;5073541;28;20028;-50
2021/07/28 08:01:16;;;;;;;5.03;3.83;;;;;;;;;;5063799;28;20048;-50
2021/07/28 08:03:42;;;;;;;5.55;3.75;;;;;;;;;;5083478;28;20036;-48
2021/07/28 08:06:09;;;;;;;5.07;3.90;;;;;;;;;;5061484;28;20035;-51
2021/07/28 08:08:35;;;;;;;4.85;3.78;;;;;;;;;;5063001;28;20487;-52
2021/07/28 08:11:06;;;;;;;8.05;4.18;;;;;;;;;;5058951;28;20028;-48
2021/07/28 08:13:32;;;;;;;7.97;4.70;;;;;;;;;;5067182;28;20028;-50
2021/07/28 08:15:58;;;;;;;6.25;4.45;;;;;;;;;;5068054;28;20382;-51
2021/07/28 08:18:23;;;;;;;6.20;3.88;;;;;;;;;;5059448;28;20046;-49
2021/07/28 08:20:50;;;;;;;5.78;4.20;;;;;;;;;;5063722;28;20041;-49
2021/07/28 08:23:16;;;;;;;7.50;4.00;;;;;;;;;;5072826;28;20020;-49
2021/07/28 08:25:42;;;;;;;5.53;4.25;;;;;;;;;;5068975;28;20475;-49
2021/07/28 08:28:08;;;;;;;5.88;4.28;;;;;;;;;;5061501;28;20545;-49
2021/07/28 08:30:34;;;;;;;9.75;4.32;;;;;;;;;;5083644;28;20044;-49
2021/07/28 08:33:00;;;;;;;4.63;3.70;;;;;;;;;;5077748;28;20032;-49
2021/07/28 08:35:26;;;;;;;6.47;3.83;;;;;;;;;;5063757;28;20032;-49
2021/07/28 08:37:52;;;;;;;8.68;3.90;;;;;;;;;;5086369;28;20031;-49
2021/07/28 08:40:18;;;;;;;6.32;3.95;;;;;;;;;;5092281;28;20027;-49
2021/07/28 08:42:48;;;;;;;5.95;3.55;;;;;;;;;;5072203;28;20040;-50
2021/07/28 08:45:15;;;;;;;4.32;3.13;;;;;;;;;;5088777;28;20391;-50
2021/07/28 08:47:42;;;;;;;6.13;3.63;;;;;;;;;;5077277;28;20046;-52
2021/07/28 08:50:09;;;;;;;3.70;2.70;;;;;;;;;;5069466;28;20024;-50
2021/07/28 08:52:36;;;;;;;4.97;3.00;;;;;;;;;;5062177;28;20112;-50
2021/07/28 08:55:03;;;;;;;4.45;3.25;;;;;;;;;;5067961;28;20825;-49
2021/07/28 08:57:31;;;;;;;4.97;3.38;;;;;;;;;;5077236;28;20519;-51
2021/07/28 08:59:57;;;;;;;4.43;2.85;;;;;;;;;;5083109;28;20036;-51
2021/07/28 09:02:24;;;;;;;4.50;3.28;;;;;;;;;;5067178;28;20484;-49
2021/07/28 09:04:50;;;;;;;5.35;3.05;;;;;;;;;;5065555;28;20031;-49
2021/07/28 09:07:16;;;;;;;5.22;3.05;;;;;;;;;;5071109;28;20112;-49
2021/07/28 09:09:53;;;;;;;6.03;3.50;;;;;;;;;;5076036;28;20408;-49
2021/07/28 09:12:19;;;;;;;2.72;2.30;;;;;;;;;;5079366;28;20104;-49
2021/07/28 09:14:53;;;;;;;5.38;2.83;;;;;;;;;;5070667;28;20067;-48
2021/07/28 09:17:20;;;;;;;3.85;2.55;;;;;;;;;;5063116;28;20460;-49
2021/07/28 09:19:50;;;;;;;7.82;3.47;;;;;;;;;;5063641;28;20029;-49
2021/07/28 09:22:18;;;;;;;4.90;3.20;;;;;;;;;;5085889;28;20643;-49
2021/07/28 09:24:47;;;;;;;5.28;3.13;;;;;;;;;;5095878;28;20067;-50
2021/07/28 09:27:52;;;;;;;3.78;3.13;;;;;;;;;;5091180;28;20342;-50
2021/07/28 09:30:24;;;;;;;3.90;3.08;;;;;;;;;;5057847;28;20515;-49
2021/07/28 09:32:59;;;;;;;4.35;3.03;;;;;;;;;;5073352;28;20024;-51
2021/07/28 09:35:43;;;;;;;3.72;2.38;;;;;;;;;;5072903;28;20655;-48
2021/07/28 09:38:10;;;;;;;4.10;3.05;;;;;;;;;;5095605;28;20115;-49
2021/07/28 09:40:36;;;;;;;3.83;3.05;;;;;;;;;;5095589;28;20462;-49
2021/07/28 09:43:05;;;;;;;5.88;2.83;;;;;;;;;;5096084;28;20024;-52
2021/07/28 09:45:31;;;;;;;7.15;2.67;;;;;;;;;;5080988;28;20020;-51
2021/07/28 09:47:57;;;;;;;3.42;2.75;;;;;;;;;;5059843;28;20570;-53
2021/07/28 09:50:23;;;;;;;4.45;2.85;;;;;;;;;;5095381;28;20463;-50
2021/07/28 09:53:06;;;;;;;6.93;3.15;;;;;;;;;;5095338;28;20043;-50
2021/07/28 09:55:32;;;;;;;6.03;3.17;;;;;;;;;;5093762;28;20114;-52
2021/07/28 09:57:59;;;;;;;4.45;2.90;;;;;;;;;;5064837;28;20039;-52
2021/07/28 10:00:27;;;;;;;7.20;2.95;;;;;;;;;;5083947;28;20039;-51
2021/07/28 10:02:53;;;;;;;5.05;3.30;;;;;;;;;;5081526;28;20024;-51
2021/07/28 10:05:20;;;;;;;3.33;3.00;;;;;;;;;;5065507;28;20066;-49
2021/07/28 10:07:47;;;;;;;5.53;3.47;;;;;;;;;;5085104;28;20487;-49
2021/07/28 10:10:13;;;;;;;6.85;3.03;;;;;;;;;;5071037;28;20040;-49
2021/07/28 10:12:40;;;;;;;4.88;2.97;;;;;;;;;;5093038;28;20403;-49
2021/07/28 10:15:08;;;;;;;4.30;3.05;;;;;;;;;;5076298;28;20049;-49
2021/07/28 10:17:35;;;;;;;3.67;2.55;;;;;;;;;;5081440;28;20060;-49
2021/07/28 10:20:01;;;;;;;4.07;2.90;;;;;;;;;;5082347;28;20377;-51
2021/07/28 10:22:28;;;;;;;3.42;2.22;;;;;;;;;;5076314;28;20024;-49
2021/07/28 10:24:55;;;;;;;4.57;2.85;;;;;;;;;;5070477;28;20078;-49
2021/07/28 10:27:21;;;;;;;6.10;2.80;;;;;;;;;;5075739;28;20029;-49
2021/07/28 10:29:50;;;;;;;4.28;2.75;;;;;;;;;;5063666;28;20017;-49
2021/07/28 10:32:29;;;;;;;3.72;2.97;;;;;;;;;;5070982;28;20783;-49
2021/07/28 10:35:15;;;;;;;5.80;3.10;;;;;;;;;;5061000;28;20360;-51
2021/07/28 10:37:41;;;;;;;3.90;2.80;;;;;;;;;;5072567;28;20027;-49
2021/07/28 10:40:27;;;;;;;4.10;2.70;;;;;;;;;;5094445;28;20047;-51
2021/07/28 10:42:56;;;;;;;6.30;2.63;;;;;;;;;;5094799;28;20024;-54
2021/07/28 10:45:22;;;;;;;3.45;2.70;;;;;;;;;;5094355;28;20035;-49
2021/07/28 10:47:50;;;;;;;4.90;2.90;;;;;;;;;;5090539;28;20028;-50
2021/07/28 10:50:22;;;;;;;4.18;2.65;;;;;;;;;;5080880;28;20027;-49
2021/07/28 10:52:50;;;;;;;4.32;2.53;;;;;;;;;;5062929;28;20108;-51
2021/07/28 10:55:18;;;;;;;3.78;2.22;;;;;;;;;;5088562;28;20027;-49
2021/07/28 10:57:54;;;;;;;2.88;2.10;;;;;;;;;;5077481;28;20055;-51
2021/07/28 11:00:38;;;;;;;4.28;2.63;;;;;;;;;;5083807;28;20028;-49
2021/07/28 11:03:07;;;;;;;2.97;2.63;;;;;;;;;;5079900;28;20051;-49
2021/07/28 11:05:37;;;;;;;3.53;2.38;;;;;;;;;;5094072;28;20024;-48
2021/07/28 11:08:06;;;;;;;3.88;2.60;;;;;;;;;;5085853;28;20043;-49
2021/07/28 11:10:32;;;;;;;3.65;2.90;;;;;;;;;;5070789;28;20044;-49
2021/07/28 11:12:59;;;;;;;4.32;2.60;;;;;;;;;;5085240;28;20365;-49
2021/07/28 11:15:25;;;;;;;3.10;2.30;;;;;;;;;;5093471;28;20431;-49
2021/07/28 11:17:55;;;;;;;5.70;2.55;;;;;;;;;;5080183;28;20498;-49
2021/07/28 11:20:28;;;;;;;3.55;2.55;;;;;;;;;;5078628;28;20098;-49
2021/07/28 11:23:14;;;;;;;3.33;2.33;;;;;;;;;;5056404;28;20078;-48
2021/07/28 11:25:40;;;;;;;3.80;2.58;;;;;;;;;;5089960;28;20028;-50
2021/07/28 11:28:06;;;;;;;6.20;2.70;;;;;;;;;;5075740;28;20111;-49
2021/07/28 11:30:32;;;;;;;4.25;2.50;;;;;;;;;;5063223;28;20040;-49
2021/07/28 11:33:14;;;;;;;3.15;2.42;;;;;;;;;;5061598;28;20028;-49
2021/07/28 11:35:44;;;;;;;5.15;2.90;;;;;;;;;;5069943;28;20111;-49
2021/07/28 11:38:14;;;;;;;3.88;2.22;;;;;;;;;;5060026;28;20385;-49
2021/07/28 11:40:43;;;;;;;3.42;2.50;;;;;;;;;;5057632;28;20033;-51
2021/07/28 11:43:26;;;;;;;4.50;2.83;;;;;;;;;;5073797;28;20043;-49
2021/07/28 11:45:53;;;;;;;4.03;2.50;;;;;;;;;;5071738;28;20047;-53
2021/07/28 11:48:29;;;;;;;3.05;2.63;;;;;;;;;;5060876;28;20036;-54
2021/07/28 11:50:55;;;;;;;4.40;2.40;;;;;;;;;;5074157;28;20024;-49
2021/07/28 11:53:27;;;;;;;3.88;2.45;;;;;;;;;;5076881;28;20738;-51
2021/07/28 11:56:06;;;;;;;3.35;2.80;;;;;;;;;;5075120;28;20108;-50
2021/07/28 11:58:32;;;;;;;4.53;2.90;;;;;;;;;;5062686;28;20553;-52
2021/07/28 12:00:58;;;;;;;4.03;2.75;;;;;;;;;;5082355;28;20039;-52
2021/07/28 12:03:25;;;;;;;3.08;2.40;;;;;;;;;;5068584;28;20040;-48
2021/07/28 12:06:01;;;;;;;13.02;4.75;;;;;;;;;;5063724;28;20033;-51
2021/07/28 12:08:30;;;;;;;3.78;2.63;;;;;;;;;;5076891;28;20375;-50
2021/07/28 12:11:03;;;;;;;4.05;2.47;;;;;;;;;;5076963;28;20518;-50
2021/07/28 12:13:29;;;;;;;;;;;;;;;;;;5079488;28;20025;-50
2021/07/28 12:16:04;;;;;;;4.40;2.67;;;;;;;;;;5066906;28;19936;-49
2021/07/28 12:18:40;;;;;;;2.72;2.15;;;;;;;;;;5076587;28;20095;-50
2021/07/28 12:21:06;;;;;;;5.75;2.58;;;;;;;;;;5066779;28;20036;-50
2021/07/28 12:23:33;;;;;;;4.50;2.72;;;;;;;;;;5080078;28;20174;-49
2021/07/28 12:25:59;;;;;;;5.78;2.92;;;;;;;;;;5092606;28;20036;-49
2021/07/28 12:28:45;;;;;;;5.50;2.70;;;;;;;;;;5080950;28;20028;-52
2021/07/28 12:31:24;;;;;;;4.57;2.50;;;;;;;;;;5073610;28;20013;-49
2021/07/28 12:33:50;;;;;;;3.47;2.67;;;;;;;;;;5056588;28;20029;-50
2021/07/28 12:36:25;;;;;;;4.13;2.60;;;;;;;;;;5064100;28;20129;-49
2021/07/28 12:38:51;;;;;;;7.47;2.47;;;;;;;;;;5073147;28;20027;-52
2021/07/28 12:41:18;;;;;;;3.53;2.47;;;;;;;;;;5076309;28;20474;-50
2021/07/28 12:43:44;;;;;;;3.70;2.20;;;;;;;;;;5092363;28;20539;-49
2021/07/28 12:46:10;;;;;;;4.65;1.98;;;;;;;;;;5072694;28;20079;-49
2021/07/28 12:48:37;;;;;;;3.80;2.65;;;;;;;;;;5059843;28;20388;-51
2021/07/28 12:51:04;;;;;;;2.53;2.05;;;;;;;;;;5068600;28;20111;-49
2021/07/28 12:53:30;;;;;;;4.75;2.00;;;;;;;;;;5072002;28;20111;-49
2021/07/28 12:55:57;;;;;;;6.13;2.72;;;;;;;;;;5070364;28;20028;-54
2021/07/28 12:58:23;;;;;;;3.05;2.33;;;;;;;;;;5069854;28;20030;-49
2021/07/28 13:00:49;;;;;;;3.20;2.10;;;;;;;;;;5058251;28;20284;-49
2021/07/28 13:03:17;;;;;;;3.58;2.40;;;;;;;;;;5066022;28;20025;-49
2021/07/28 13:05:46;;;;;;;6.90;2.28;;;;;;;;;;5081105;28;20043;-49
2021/07/28 13:08:12;;;;;;;3.35;2.00;;;;;;;;;;5065340;28;20503;-49
2021/07/28 13:10:39;;;;;;;3.83;1.98;;;;;;;;;;5074819;28;20048;-49
2021/07/28 13:13:06;;;;;;;2.78;2.35;;;;;;;;;;5071288;28;20021;-49
2021/07/28 13:15:33;;;;;;;2.88;2.28;;;;;;;;;;5057803;28;20568;-52
2021/07/28 13:18:01;;;;;;;3.22;1.95;;;;;;;;;;5073482;28;20039;-49
2021/07/28 13:20:28;;;;;;;2.95;2.00;;;;;;;;;;5075842;28;20082;-49
2021/07/28 13:22:54;;;;;;;3.25;2.15;;;;;;;;;;5091771;28;20107;-49
2021/07/28 13:25:21;;;;;;;4.18;2.00;;;;;;;;;;5083153;28;20112;-50
2021/07/28 13:27:47;;;;;;;2.83;2.03;;;;;;;;;;5091469;28;20082;-48
2021/07/28 13:30:13;;;;;;;3.03;2.17;;;;;;;;;;5062954;28;20036;-49
2021/07/28 13:32:39;;;;;;;2.80;1.80;;;;;;;;;;5055607;28;20327;-52
2021/07/28 13:35:06;;;;;;;2.38;1.90;;;;;;;;;;5054757;28;20029;-49
2021/07/28 13:37:32;;;;;;;4.95;1.73;;;;;;;;;;5051340;28;20045;-49
2021/07/28 13:39:58;;;;;;;2.58;1.67;;;;;;;;;;5072109;28;20071;-50
2021/07/28 13:42:24;;;;;;;2.58;2.00;;;;;;;;;;5052360;28;20040;-50
2021/07/28 13:44:51;;;;;;;2.65;1.70;;;;;;;;;;5066443;28;20033;-52
2021/07/28 13:47:17;;;;;;;1.80;1.33;;;;;;;;;;5066711;28;20485;-49
2021/07/28 13:49:43;;;;;;;2.28;1.70;;;;;;;;;;5053691;28;20103;-49
2021/07/28 13:52:08;;;;;;;4.15;1.90;;;;;;;;;;5072012;28;20074;-49
2021/07/28 13:54:34;;;;;;;4.75;2.10;;;;;;;;;;5085583;28;20036;-49
2021/07/28 13:57:18;;;;;;;3.22;1.58;;;;;;;;;;5059457;28;20021;-50
2021/07/28 13:59:44;;;;;;;3.67;1.77;;;;;;;;;;5072145;28;20051;-49
2021/07/28 14:02:11;;;;;;;2.83;2.10;;;;;;;;;;5058047;28;20467;-49
2021/07/28 14:04:37;;;;;;;6.03;2.25;;;;;;;;;;5063417;28;20032;-52
2021/07/28 14:07:03;;;;;;;3.17;2.22;;;;;;;;;;5062561;28;20037;-51
2021/07/28 14:09:29;;;;;;;3.42;2.42;;;;;;;;;;5079973;28;20082;-53
2021/07/28 14:11:56;;;;;;;4.25;1.92;;;;;;;;;;5072058;28;20031;-54
2021/07/28 14:14:22;;;;;;;8.00;2.20;;;;;;;;;;5084411;28;20028;-50
2021/07/28 14:16:48;;;;;;;3.55;2.17;;;;;;;;;;5077662;28;20033;-49
2021/07/28 14:19:17;;;;;;;5.93;3.22;;;;;;;;;;5089420;28;20029;-49
2021/07/28 14:21:44;;;;;;;3.72;2.90;;;;;;;;;;5061109;28;20040;-49
2021/07/28 14:24:11;;;;;;;3.53;2.70;;;;;;;;;;5093364;28;20106;-49
2021/07/28 14:26:37;;;;;;;6.10;2.60;;;;;;;;;;5057116;28;20087;-49
2021/07/28 14:29:03;;;;;;;4.97;2.67;;;;;;;;;;5074211;28;20028;-49
2021/07/28 14:31:29;;;;;;;3.97;2.08;;;;;;;;;;5066775;28;20547;-49
2021/07/28 14:33:55;;;;;;;5.00;2.83;;;;;;;;;;5070863;28;20437;-51
2021/07/28 14:36:21;;;;;;;5.30;2.67;;;;;;;;;;5078602;28;20024;-50
2021/07/28 14:38:47;;;;;;;4.15;2.67;;;;;;;;;;5065032;28;20031;-49
2021/07/28 14:41:13;;;;;;;3.20;2.53;;;;;;;;;;5078957;28;20099;-50
2021/07/28 14:43:39;;;;;;;2.88;2.00;;;;;;;;;;5087685;28;20032;-52
2021/07/28 14:46:05;;;;;;;5.90;2.72;;;;;;;;;;5074847;28;20108;-50